createdAt,value
2019-05-25T00:00:08.050Z,17.09
2019-05-25T00:01:13.661Z,17.08
2019-05-25T00:02:19.041Z,17.07
2019-05-25T00:03:24.860Z,17.06
2019-05-25T00:04:29.848Z,17.04
2019-05-25T00:05:35.530Z,17.03
2019-05-25T00:06:40.866Z,17.01
2019-05-25T00:07:46.664Z,16.99
2019-05-25T00:08:51.794Z,16.96
2019-05-25T00:09:57.340Z,16.93
2019-05-25T00:11:02.378Z,16.90
2019-05-25T00:12:08.063Z,16.88
2019-05-25T00:13:13.066Z,16.86
2019-05-25T00:14:18.925Z,16.83
2019-05-25T00:15:23.930Z,16.82
2019-05-25T00:16:29.699Z,16.81
2019-05-25T00:17:35.774Z,16.80
2019-05-25T00:18:41.313Z,16.79
2019-05-25T00:19:46.675Z,16.79
2019-05-25T00:20:52.660Z,16.78
2019-05-25T00:21:57.667Z,16.75
2019-05-25T00:23:03.346Z,16.75
2019-05-25T00:24:12.055Z,16.74
2019-05-25T00:25:15.692Z,16.71
2019-05-25T00:26:21.026Z,16.69
2019-05-25T00:27:26.553Z,16.68
2019-05-25T00:28:31.556Z,16.64
2019-05-25T00:29:37.131Z,16.62
2019-05-25T00:30:42.057Z,16.60
2019-05-25T00:31:47.685Z,16.57
2019-05-25T00:32:52.718Z,16.56
2019-05-25T00:33:58.520Z,16.54
2019-05-25T00:35:03.879Z,16.53
2019-05-25T00:36:09.598Z,16.52
2019-05-25T00:37:14.900Z,16.51
2019-05-25T00:38:20.513Z,16.50
2019-05-25T00:39:25.907Z,16.50
2019-05-25T00:40:31.566Z,16.48
2019-05-25T00:41:36.654Z,16.48
2019-05-25T00:42:42.862Z,16.47
2019-05-25T00:43:47.895Z,16.47
2019-05-25T00:44:54.354Z,16.45
2019-05-25T00:45:59.335Z,16.43
2019-05-25T00:47:04.959Z,16.42
2019-05-25T00:48:10.108Z,16.40
2019-05-25T00:49:15.666Z,16.39
2019-05-25T00:50:20.828Z,16.37
2019-05-25T00:51:26.749Z,16.36
2019-05-25T00:52:32.039Z,16.34
2019-05-25T00:53:37.648Z,16.32
2019-05-25T00:54:42.712Z,16.32
2019-05-25T00:55:48.303Z,16.31
2019-05-25T00:56:53.364Z,16.29
2019-05-25T00:57:59.313Z,16.28
2019-05-25T00:59:04.422Z,16.27
2019-05-25T01:00:10.954Z,16.24
2019-05-25T01:01:15.970Z,16.22
2019-05-25T01:02:21.526Z,16.23
2019-05-25T01:03:26.495Z,16.21
2019-05-25T01:04:32.157Z,16.20
2019-05-25T01:05:37.245Z,16.19
2019-05-25T01:06:42.853Z,16.17
2019-05-25T01:07:47.900Z,16.15
2019-05-25T01:08:53.690Z,16.13
2019-05-25T01:09:58.705Z,16.12
2019-05-25T01:11:04.415Z,16.11
2019-05-25T01:12:09.654Z,16.09
2019-05-25T01:13:15.324Z,16.08
2019-05-25T01:14:20.380Z,16.06
2019-05-25T01:15:26.221Z,16.05
2019-05-25T01:16:31.334Z,16.05
2019-05-25T01:17:37.165Z,16.03
2019-05-25T01:18:42.202Z,16.02
2019-05-25T01:19:47.739Z,16.02
2019-05-25T01:20:52.673Z,16.01
2019-05-25T01:21:58.278Z,16.00
2019-05-25T01:23:03.312Z,15.98
2019-05-25T01:24:09.292Z,15.97
2019-05-25T01:25:15.173Z,15.97
2019-05-25T01:26:20.784Z,15.96
2019-05-25T01:27:25.926Z,15.94
2019-05-25T01:28:31.541Z,15.93
2019-05-25T01:29:36.680Z,15.91
2019-05-25T01:30:42.375Z,15.90
2019-05-25T01:31:47.307Z,15.88
2019-05-25T01:32:53.001Z,15.86
2019-05-25T01:33:58.069Z,15.83
2019-05-25T01:35:03.725Z,15.82
2019-05-25T01:36:08.782Z,15.79
2019-05-25T01:37:14.694Z,15.77
2019-05-25T01:38:19.708Z,15.74
2019-05-25T01:39:25.364Z,15.72
2019-05-25T01:40:30.474Z,15.71
2019-05-25T01:41:36.196Z,15.69
2019-05-25T01:42:41.473Z,15.69
2019-05-25T01:43:47.309Z,15.70
2019-05-25T01:44:52.664Z,15.68
2019-05-25T01:45:58.306Z,15.67
2019-05-25T01:47:03.426Z,15.66
2019-05-25T01:48:09.340Z,15.64
2019-05-25T01:49:14.490Z,15.60
2019-05-25T01:50:20.087Z,15.56
2019-05-25T01:51:29.442Z,15.52
2019-05-25T01:52:35.094Z,15.47
2019-05-25T01:53:40.057Z,15.43
2019-05-25T01:54:58.977Z,15.40
2019-05-25T01:55:52.952Z,15.36
2019-05-25T01:56:58.597Z,15.32
2019-05-25T01:58:03.611Z,15.29
2019-05-25T01:59:09.153Z,15.27
2019-05-25T02:00:14.730Z,15.24
2019-05-25T02:01:20.343Z,15.22
2019-05-25T02:02:25.369Z,15.18
2019-05-25T02:03:31.278Z,15.16
2019-05-25T02:04:36.322Z,15.13
2019-05-25T02:05:42.248Z,15.12
2019-05-25T02:06:47.277Z,15.09
2019-05-25T02:07:52.807Z,15.07
2019-05-25T02:08:58.038Z,15.07
2019-05-25T02:10:35.440Z,15.06
2019-05-25T02:11:40.878Z,15.06
2019-05-25T02:12:46.925Z,15.03
2019-05-25T02:16:41.319Z,15.02
2019-05-25T02:17:47.035Z,14.98
2019-05-25T02:18:52.186Z,14.94
2019-05-25T02:19:59.035Z,14.93
2019-05-25T02:21:04.058Z,14.92
2019-05-25T02:22:09.693Z,14.90
2019-05-25T02:23:14.876Z,14.89
2019-05-25T02:24:20.828Z,14.88
2019-05-25T02:25:26.115Z,14.87
2019-05-25T02:26:31.624Z,14.87
2019-05-25T02:27:36.848Z,14.85
2019-05-25T02:28:42.401Z,14.84
2019-05-25T02:29:47.468Z,14.84
2019-05-25T02:30:53.080Z,14.82
2019-05-25T02:31:58.083Z,14.81
2019-05-25T02:33:03.782Z,14.79
2019-05-25T02:34:08.767Z,14.78
2019-05-25T02:35:25.480Z,14.76
2019-05-25T02:36:30.425Z,14.76
2019-05-25T02:37:36.024Z,14.74
2019-05-25T02:38:41.344Z,14.73
2019-05-25T02:39:47.121Z,14.71
2019-05-25T02:40:52.169Z,14.69
2019-05-25T02:41:57.720Z,14.68
2019-05-25T02:43:05.803Z,14.68
2019-05-25T02:44:11.371Z,14.67
2019-05-25T02:45:16.721Z,14.68
2019-05-25T02:46:22.333Z,14.65
2019-05-25T02:47:27.578Z,14.65
2019-05-25T02:48:33.247Z,14.64
2019-05-25T02:49:38.277Z,14.64
2019-05-25T02:50:43.934Z,14.62
2019-05-25T02:51:49.054Z,14.62
2019-05-25T02:52:54.704Z,14.61
2019-05-25T02:53:59.789Z,14.58
2019-05-25T02:55:05.950Z,14.58
2019-05-25T02:56:11.004Z,14.57
2019-05-25T02:57:16.575Z,14.56
2019-05-25T02:58:21.855Z,14.55
2019-05-25T02:59:27.467Z,14.53
2019-05-25T03:00:33.561Z,14.51
2019-05-25T03:01:39.131Z,14.51
2019-05-25T03:02:44.242Z,14.51
2019-05-25T03:03:49.954Z,14.49
2019-05-25T03:04:54.939Z,14.48
2019-05-25T03:06:00.720Z,14.48
2019-05-25T03:07:05.922Z,14.46
2019-05-25T03:08:11.615Z,14.45
2019-05-25T03:09:18.160Z,14.45
2019-05-25T03:10:23.891Z,14.44
2019-05-25T03:11:29.380Z,14.44
2019-05-25T03:12:35.615Z,14.43
2019-05-25T03:13:41.530Z,14.43
2019-05-25T03:14:47.422Z,14.42
2019-05-25T03:15:53.976Z,14.41
2019-05-25T03:16:59.527Z,14.42
2019-05-25T03:18:04.761Z,14.41
2019-05-25T03:19:10.308Z,14.39
2019-05-25T03:20:15.372Z,14.39
2019-05-25T03:21:20.880Z,14.37
2019-05-25T03:22:25.875Z,14.37
2019-05-25T03:23:31.709Z,14.36
2019-05-25T03:24:36.709Z,14.35
2019-05-25T03:25:49.551Z,14.33
2019-05-25T03:26:48.908Z,14.32
2019-05-25T03:27:54.761Z,14.32
2019-05-25T03:28:59.784Z,14.31
2019-05-25T03:30:06.727Z,14.30
2019-05-25T03:31:11.739Z,14.28
2019-05-25T03:32:17.581Z,14.28
2019-05-25T03:33:22.576Z,14.27
2019-05-25T03:34:28.146Z,14.28
2019-05-25T03:35:33.337Z,14.27
2019-05-25T03:36:39.024Z,14.26
2019-05-25T03:37:44.030Z,14.25
2019-05-25T03:38:49.879Z,14.24
2019-05-25T03:39:54.862Z,14.24
2019-05-25T03:41:00.616Z,14.22
2019-05-25T03:42:05.708Z,14.21
2019-05-25T03:43:11.279Z,14.22
2019-05-25T03:44:16.211Z,14.22
2019-05-25T03:45:21.896Z,14.21
2019-05-25T03:46:26.932Z,14.20
2019-05-25T03:47:32.555Z,14.18
2019-05-25T03:48:37.563Z,14.18
2019-05-25T03:49:43.419Z,14.17
2019-05-25T03:50:48.387Z,14.15
2019-05-25T03:51:53.896Z,14.15
2019-05-25T03:52:58.911Z,14.13
2019-05-25T03:54:04.530Z,14.13
2019-05-25T03:55:09.709Z,14.13
2019-05-25T03:56:15.295Z,14.10
2019-05-25T03:57:20.301Z,14.10
2019-05-25T03:58:25.841Z,14.12
2019-05-25T03:59:30.850Z,14.13
2019-05-25T04:00:37.622Z,14.12
2019-05-25T04:01:42.573Z,14.13
2019-05-25T04:02:51.089Z,14.14
2019-05-25T04:03:56.130Z,14.13
2019-05-25T04:05:02.168Z,14.13
2019-05-25T04:06:07.362Z,14.13
2019-05-25T04:07:12.984Z,14.14
2019-05-25T04:08:17.984Z,14.14
2019-05-25T04:09:23.784Z,14.14
2019-05-25T04:10:29.057Z,14.14
2019-05-25T04:11:34.619Z,14.14
2019-05-25T04:12:39.555Z,14.14
2019-05-25T04:13:45.694Z,14.14
2019-05-25T04:14:50.690Z,14.14
2019-05-25T04:15:56.336Z,14.14
2019-05-25T04:17:01.260Z,14.15
2019-05-25T04:18:07.332Z,14.16
2019-05-25T04:19:12.330Z,14.18
2019-05-25T04:20:18.099Z,14.18
2019-05-25T04:21:23.131Z,14.19
2019-05-25T04:22:28.737Z,14.19
2019-05-25T04:23:33.720Z,14.18
2019-05-25T04:24:39.339Z,14.17
2019-05-25T04:25:44.255Z,14.16
2019-05-25T04:26:49.852Z,14.15
2019-05-25T04:27:54.810Z,14.16
2019-05-25T04:29:00.388Z,14.16
2019-05-25T04:30:06.018Z,14.15
2019-05-25T04:31:11.607Z,14.14
2019-05-25T04:32:16.557Z,14.12
2019-05-25T04:33:22.169Z,14.13
2019-05-25T04:34:27.482Z,14.12
2019-05-25T04:35:33.100Z,14.13
2019-05-25T04:36:38.362Z,14.13
2019-05-25T04:37:43.900Z,14.13
2019-05-25T04:38:48.906Z,14.14
2019-05-25T04:39:54.691Z,14.12
2019-05-25T04:40:59.619Z,14.12
2019-05-25T04:42:05.312Z,14.14
2019-05-25T04:43:10.556Z,14.15
2019-05-25T04:44:16.198Z,14.16
2019-05-25T04:45:21.263Z,14.18
2019-05-25T04:46:26.966Z,14.21
2019-05-25T04:47:32.141Z,14.22
2019-05-25T04:48:37.719Z,14.23
2019-05-25T04:49:44.147Z,14.22
2019-05-25T04:50:50.008Z,14.21
2019-05-25T04:51:55.067Z,14.21
2019-05-25T04:53:00.660Z,14.22
2019-05-25T04:54:05.714Z,14.24
2019-05-25T04:55:11.534Z,14.23
2019-05-25T04:56:16.462Z,14.23
2019-05-25T04:57:22.255Z,14.22
2019-05-25T04:58:27.263Z,14.22
2019-05-25T04:59:32.784Z,14.21
2019-05-25T05:00:37.720Z,14.20
2019-05-25T05:01:43.288Z,14.21
2019-05-25T05:02:48.452Z,14.21
2019-05-25T05:03:54.310Z,14.21
2019-05-25T05:04:59.320Z,14.22
2019-05-25T05:06:05.125Z,14.25
2019-05-25T05:07:10.408Z,14.25
2019-05-25T05:08:16.007Z,14.24
2019-05-25T05:09:20.958Z,14.26
2019-05-25T05:10:26.516Z,14.26
2019-05-25T05:11:32.191Z,14.29
2019-05-25T05:12:37.695Z,14.34
2019-05-25T05:13:42.651Z,14.37
2019-05-25T05:14:48.959Z,14.41
2019-05-25T05:15:54.322Z,14.45
2019-05-25T05:17:00.270Z,14.48
2019-05-25T05:18:05.382Z,14.53
2019-05-25T05:19:11.757Z,14.56
2019-05-25T05:20:16.893Z,14.58
2019-05-25T05:21:22.479Z,14.60
2019-05-25T05:22:28.451Z,14.62
2019-05-25T05:23:34.939Z,14.62
2019-05-25T05:24:40.946Z,14.67
2019-05-25T05:25:47.166Z,14.72
2019-05-25T05:26:56.154Z,14.78
2019-05-25T05:28:01.835Z,14.83
2019-05-25T05:29:19.400Z,14.91
2019-05-25T05:30:38.494Z,14.98
2019-05-25T05:31:45.235Z,15.06
2019-05-25T05:32:57.522Z,15.11
2019-05-25T05:34:08.389Z,15.16
2019-05-25T05:35:17.301Z,15.26
2019-05-25T05:36:35.028Z,15.31
2019-05-25T05:37:59.417Z,15.39
2019-05-25T05:39:14.490Z,15.48
2019-05-25T05:40:27.020Z,15.59
2019-05-25T05:41:38.072Z,15.66
2019-05-25T05:42:48.418Z,15.71
2019-05-25T05:44:02.033Z,15.77
2019-05-25T05:45:09.126Z,15.86
2019-05-25T05:46:22.244Z,15.95
2019-05-25T05:47:32.762Z,16.03
2019-05-25T05:48:44.960Z,16.10
2019-05-25T05:50:02.889Z,16.16
2019-05-25T05:51:22.759Z,16.22
2019-05-25T05:52:39.229Z,16.29
2019-05-25T05:53:55.943Z,16.37
2019-05-25T05:55:05.282Z,16.41
2019-05-25T05:56:15.104Z,16.48
2019-05-25T05:57:24.441Z,16.55
2019-05-25T05:58:48.586Z,16.64
2019-05-25T05:59:58.077Z,16.74
2019-05-25T06:01:06.358Z,16.85
2019-05-25T06:02:12.550Z,16.93
2019-05-25T06:03:19.891Z,17.02
2019-05-25T06:04:25.987Z,17.11
2019-05-25T06:05:35.346Z,17.16
2019-05-25T06:06:40.923Z,17.26
2019-05-25T06:07:46.099Z,17.30
2019-05-25T06:08:51.650Z,17.35
2019-05-25T06:09:56.711Z,17.40
2019-05-25T06:11:02.554Z,17.46
2019-05-25T06:12:07.649Z,17.54
2019-05-25T06:13:13.264Z,17.62
2019-05-25T06:14:18.174Z,17.67
2019-05-25T06:15:23.801Z,17.73
2019-05-25T06:16:28.845Z,17.79
2019-05-25T06:17:34.471Z,17.84
2019-05-25T06:18:39.490Z,17.89
2019-05-25T06:19:44.988Z,17.94
2019-05-25T06:20:49.933Z,18.00
2019-05-25T06:21:55.473Z,18.07
2019-05-25T06:23:00.408Z,18.13
2019-05-25T06:24:06.069Z,18.15
2019-05-25T06:25:12.331Z,18.16
2019-05-25T06:26:17.846Z,18.17
2019-05-25T06:27:27.367Z,18.16
2019-05-25T06:28:30.221Z,18.14
2019-05-25T06:29:35.450Z,18.13
2019-05-25T06:30:41.020Z,18.12
2019-05-25T06:31:46.029Z,18.09
2019-05-25T06:32:51.668Z,18.09
2019-05-25T06:33:56.565Z,18.12
2019-05-25T06:35:02.400Z,18.14
2019-05-25T06:36:07.501Z,18.15
2019-05-25T06:37:13.120Z,18.17
2019-05-25T06:38:18.153Z,18.16
2019-05-25T06:39:24.205Z,18.13
2019-05-25T06:40:29.187Z,18.10
2019-05-25T06:41:34.780Z,18.06
2019-05-25T06:42:39.874Z,17.99
2019-05-25T06:43:45.769Z,17.93
2019-05-25T06:44:50.719Z,17.91
2019-05-25T06:45:56.586Z,17.89
2019-05-25T06:47:01.588Z,17.87
2019-05-25T06:48:07.480Z,17.88
2019-05-25T06:49:12.539Z,17.88
2019-05-25T06:50:18.907Z,17.87
2019-05-25T06:51:23.973Z,17.88
2019-05-25T06:52:29.816Z,17.86
2019-05-25T06:53:34.868Z,17.87
2019-05-25T06:54:43.080Z,17.89
2019-05-25T06:55:48.167Z,17.91
2019-05-25T06:56:54.002Z,17.92
2019-05-25T06:57:59.082Z,17.93
2019-05-25T06:59:05.470Z,17.94
2019-05-25T07:00:11.241Z,17.94
2019-05-25T07:01:16.957Z,17.93
2019-05-25T07:02:22.717Z,17.94
2019-05-25T07:03:28.393Z,17.95
2019-05-25T07:04:33.442Z,17.97
2019-05-25T07:05:39.127Z,17.97
2019-05-25T07:06:44.338Z,17.96
2019-05-25T07:07:49.860Z,17.98
2019-05-25T07:08:55.066Z,18.02
2019-05-25T07:10:00.686Z,18.08
2019-05-25T07:11:05.683Z,18.12
2019-05-25T07:12:11.198Z,18.17
2019-05-25T07:13:16.209Z,18.22
2019-05-25T07:14:21.785Z,18.27
2019-05-25T07:15:26.931Z,18.30
2019-05-25T07:16:32.511Z,18.30
2019-05-25T07:17:37.782Z,18.33
2019-05-25T07:18:43.452Z,18.39
2019-05-25T07:19:48.541Z,18.42
2019-05-25T07:20:54.301Z,18.45
2019-05-25T07:21:59.706Z,18.47
2019-05-25T07:23:05.619Z,18.50
2019-05-25T07:24:10.650Z,18.50
2019-05-25T07:25:20.015Z,18.50
2019-05-25T07:26:23.176Z,18.48
2019-05-25T07:27:29.037Z,18.46
2019-05-25T07:28:34.190Z,18.44
2019-05-25T07:29:39.929Z,18.42
2019-05-25T07:30:46.660Z,18.39
2019-05-25T07:31:52.780Z,18.37
2019-05-25T07:32:57.984Z,18.37
2019-05-25T07:34:03.894Z,18.37
2019-05-25T07:35:10.326Z,18.37
2019-05-25T07:36:16.416Z,18.36
2019-05-25T07:37:21.416Z,18.39
2019-05-25T07:38:27.016Z,18.42
2019-05-25T07:39:31.978Z,18.47
2019-05-25T07:40:37.804Z,18.55
2019-05-25T07:41:42.846Z,18.61
2019-05-25T07:42:48.440Z,18.64
2019-05-25T07:43:53.582Z,18.66
2019-05-25T07:44:59.486Z,18.67
2019-05-25T07:46:04.535Z,18.67
2019-05-25T07:47:10.135Z,18.65
2019-05-25T07:48:15.227Z,18.62
2019-05-25T07:49:20.913Z,18.61
2019-05-25T07:50:25.979Z,18.61
2019-05-25T07:51:31.494Z,18.59
2019-05-25T07:52:36.642Z,18.57
2019-05-25T07:53:42.200Z,18.57
2019-05-25T07:54:47.201Z,18.59
2019-05-25T07:55:52.747Z,18.61
2019-05-25T07:56:58.086Z,18.63
2019-05-25T07:58:16.482Z,18.64
2019-05-25T07:59:10.237Z,18.63
2019-05-25T08:00:16.909Z,18.61
2019-05-25T08:01:22.133Z,18.57
2019-05-25T08:02:27.833Z,18.52
2019-05-25T08:03:33.123Z,18.48
2019-05-25T08:04:39.096Z,18.43
2019-05-25T08:05:44.047Z,18.42
2019-05-25T08:06:49.564Z,18.43
2019-05-25T08:07:54.619Z,18.45
2019-05-25T08:09:00.123Z,18.52
2019-05-25T08:10:05.583Z,18.60
2019-05-25T08:11:11.189Z,18.70
2019-05-25T08:12:16.148Z,18.79
2019-05-25T08:13:21.656Z,18.85
2019-05-25T08:14:26.853Z,18.90
2019-05-25T08:15:32.469Z,18.92
2019-05-25T08:16:37.770Z,18.90
2019-05-25T08:17:43.422Z,18.90
2019-05-25T08:18:48.432Z,18.86
2019-05-25T08:19:54.478Z,18.81
2019-05-25T08:20:59.752Z,18.80
2019-05-25T08:22:05.424Z,18.80
2019-05-25T08:23:10.366Z,18.84
2019-05-25T08:24:16.193Z,18.90
2019-05-25T08:25:21.497Z,18.97
2019-05-25T08:26:27.132Z,19.02
2019-05-25T08:27:32.107Z,19.06
2019-05-25T08:28:37.667Z,19.04
2019-05-25T08:29:42.835Z,19.02
2019-05-25T08:30:48.529Z,19.02
2019-05-25T08:31:53.600Z,19.02
2019-05-25T08:32:59.220Z,19.05
2019-05-25T08:34:04.276Z,19.07
2019-05-25T08:35:10.007Z,19.10
2019-05-25T08:36:15.063Z,19.15
2019-05-25T08:37:20.645Z,19.21
2019-05-25T08:38:25.915Z,19.30
2019-05-25T08:39:31.484Z,19.38
2019-05-25T08:40:36.682Z,19.40
2019-05-25T08:41:45.355Z,19.37
2019-05-25T08:42:49.247Z,19.33
2019-05-25T08:43:54.774Z,19.22
2019-05-25T08:45:00.062Z,19.12
2019-05-25T08:46:05.653Z,19.01
2019-05-25T08:47:10.609Z,18.89
2019-05-25T08:48:16.287Z,18.84
2019-05-25T08:49:21.289Z,18.80
2019-05-25T08:50:37.660Z,18.77
2019-05-25T08:51:33.981Z,18.74
2019-05-25T08:52:39.652Z,18.71
2019-05-25T08:53:46.789Z,18.70
2019-05-25T08:54:51.989Z,18.69
2019-05-25T08:55:57.437Z,18.68
2019-05-25T08:57:03.241Z,18.69
2019-05-25T08:58:08.841Z,18.71
2019-05-25T08:59:14.822Z,18.72
2019-05-25T09:00:20.288Z,18.75
2019-05-25T09:01:25.891Z,18.78
2019-05-25T09:02:30.942Z,18.79
2019-05-25T09:03:36.455Z,18.80
2019-05-25T09:04:41.438Z,18.81
2019-05-25T09:05:47.180Z,18.83
2019-05-25T09:06:52.283Z,18.84
2019-05-25T09:07:57.972Z,18.85
2019-05-25T09:09:02.982Z,18.85
2019-05-25T09:10:09.417Z,18.85
2019-05-25T09:11:14.480Z,18.86
2019-05-25T09:12:20.131Z,18.86
2019-05-25T09:13:25.114Z,18.84
2019-05-25T09:14:31.219Z,18.80
2019-05-25T09:15:36.183Z,18.78
2019-05-25T09:16:41.998Z,18.75
2019-05-25T09:17:46.914Z,18.73
2019-05-25T09:18:52.452Z,18.72
2019-05-25T09:19:57.390Z,18.71
2019-05-25T09:21:03.015Z,18.73
2019-05-25T09:22:08.267Z,18.75
2019-05-25T09:23:14.142Z,18.77
2019-05-25T09:24:19.277Z,18.78
2019-05-25T09:25:24.814Z,18.82
2019-05-25T09:26:30.081Z,18.84
2019-05-25T09:27:36.019Z,18.83
2019-05-25T09:28:40.973Z,18.84
2019-05-25T09:29:46.533Z,18.87
2019-05-25T09:30:51.556Z,18.85
2019-05-25T09:31:57.153Z,18.81
2019-05-25T09:33:02.442Z,18.81
2019-05-25T09:34:08.137Z,18.81
2019-05-25T09:35:14.695Z,18.81
2019-05-25T09:36:20.321Z,18.80
2019-05-25T09:37:25.341Z,18.82
2019-05-25T09:38:31.294Z,18.84
2019-05-25T09:39:36.297Z,18.88
2019-05-25T09:40:41.824Z,18.90
2019-05-25T09:41:46.778Z,18.92
2019-05-25T09:42:52.671Z,18.97
2019-05-25T09:43:58.443Z,19.00
2019-05-25T09:45:04.459Z,19.01
2019-05-25T09:46:09.404Z,19.03
2019-05-25T09:47:14.998Z,19.01
2019-05-25T09:48:20.177Z,18.98
2019-05-25T09:49:25.837Z,18.96
2019-05-25T09:50:31.307Z,18.95
2019-05-25T09:51:37.137Z,18.96
2019-05-25T09:52:42.246Z,18.96
2019-05-25T09:53:47.928Z,18.98
2019-05-25T09:54:55.687Z,19.03
2019-05-25T09:56:00.729Z,19.04
2019-05-25T09:57:05.776Z,19.07
2019-05-25T09:58:11.577Z,19.09
2019-05-25T09:59:20.040Z,19.09
2019-05-25T10:00:24.448Z,19.08
2019-05-25T10:01:29.822Z,19.11
2019-05-25T10:02:35.454Z,19.13
2019-05-25T10:03:40.636Z,19.14
2019-05-25T10:04:46.665Z,19.16
2019-05-25T10:05:51.998Z,19.18
2019-05-25T10:06:58.043Z,19.19
2019-05-25T10:08:03.513Z,19.18
2019-05-25T10:09:09.255Z,19.15
2019-05-25T10:10:14.577Z,19.12
2019-05-25T10:11:20.266Z,19.09
2019-05-25T10:12:25.761Z,19.09
2019-05-25T10:13:31.320Z,19.10
2019-05-25T10:14:36.282Z,19.12
2019-05-25T10:15:41.963Z,19.17
2019-05-25T10:16:47.286Z,19.21
2019-05-25T10:17:52.916Z,19.30
2019-05-25T10:18:58.005Z,19.36
2019-05-25T10:20:03.986Z,19.42
2019-05-25T10:21:09.011Z,19.47
2019-05-25T10:22:14.607Z,19.50
2019-05-25T10:23:19.525Z,19.52
2019-05-25T10:24:25.141Z,19.53
2019-05-25T10:25:30.285Z,19.54
2019-05-25T10:26:35.865Z,19.57
2019-05-25T10:27:40.778Z,19.61
2019-05-25T10:28:46.317Z,19.65
2019-05-25T10:29:51.458Z,19.64
2019-05-25T10:30:57.048Z,19.63
2019-05-25T10:32:02.327Z,19.62
2019-05-25T10:33:07.807Z,19.60
2019-05-25T10:34:12.890Z,19.59
2019-05-25T10:35:18.732Z,19.58
2019-05-25T10:36:23.966Z,19.56
2019-05-25T10:37:29.848Z,19.59
2019-05-25T10:38:34.910Z,19.59
2019-05-25T10:39:40.471Z,19.63
2019-05-25T10:40:46.142Z,19.67
2019-05-25T10:41:51.826Z,19.69
2019-05-25T10:42:56.826Z,19.72
2019-05-25T10:44:02.444Z,19.74
2019-05-25T10:45:08.107Z,19.74
2019-05-25T10:46:13.938Z,19.76
2019-05-25T10:47:19.189Z,19.83
2019-05-25T10:48:25.067Z,19.88
2019-05-25T10:49:30.056Z,19.97
2019-05-25T10:50:35.901Z,20.04
2019-05-25T10:51:41.256Z,20.06
2019-05-25T10:52:46.765Z,20.08
2019-05-25T10:53:51.825Z,20.10
2019-05-25T10:54:57.679Z,20.11
2019-05-25T10:56:02.699Z,20.12
2019-05-25T10:57:08.408Z,20.13
2019-05-25T10:58:13.644Z,20.17
2019-05-25T10:59:19.238Z,20.21
2019-05-25T11:00:24.642Z,20.25
2019-05-25T11:01:30.217Z,20.31
2019-05-25T11:02:35.479Z,20.38
2019-05-25T11:03:41.433Z,20.45
2019-05-25T11:04:46.346Z,20.51
2019-05-25T11:05:52.319Z,20.58
2019-05-25T11:06:57.490Z,20.64
2019-05-25T11:08:03.118Z,20.68
2019-05-25T11:09:08.284Z,20.77
2019-05-25T11:10:14.840Z,20.78
2019-05-25T11:11:19.861Z,20.80
2019-05-25T11:12:26.141Z,20.84
2019-05-25T11:13:31.211Z,20.89
2019-05-25T11:14:37.019Z,20.95
2019-05-25T11:15:42.087Z,20.96
2019-05-25T11:16:47.750Z,20.97
2019-05-25T11:17:52.681Z,21.01
2019-05-25T11:18:58.419Z,21.03
2019-05-25T11:20:03.558Z,21.05
2019-05-25T11:21:09.263Z,21.03
2019-05-25T11:22:14.289Z,20.98
2019-05-25T11:23:19.854Z,20.96
2019-05-25T11:24:25.014Z,20.94
2019-05-25T11:25:30.628Z,20.90
2019-05-25T11:26:35.823Z,20.84
2019-05-25T11:27:42.032Z,20.78
2019-05-25T11:28:47.024Z,20.73
2019-05-25T11:30:06.043Z,20.68
2019-05-25T11:30:59.234Z,20.66
2019-05-25T11:32:06.117Z,20.62
2019-05-25T11:33:12.424Z,20.62
2019-05-25T11:34:18.022Z,20.60
2019-05-25T11:35:23.178Z,20.58
2019-05-25T11:36:28.915Z,20.55
2019-05-25T11:37:33.874Z,20.53
2019-05-25T11:38:39.614Z,20.50
2019-05-25T11:39:44.559Z,20.47
2019-05-25T11:40:50.491Z,20.42
2019-05-25T11:41:55.504Z,20.35
2019-05-25T11:43:01.361Z,20.28
2019-05-25T11:44:06.705Z,20.20
2019-05-25T11:45:13.946Z,20.14
2019-05-25T11:46:19.028Z,20.10
2019-05-25T11:47:24.871Z,20.08
2019-05-25T11:48:29.795Z,20.10
2019-05-25T11:49:35.286Z,20.11
2019-05-25T11:50:40.362Z,20.14
2019-05-25T11:51:45.972Z,20.19
2019-05-25T11:52:51.049Z,20.22
2019-05-25T11:53:56.515Z,20.30
2019-05-25T11:55:01.799Z,20.36
2019-05-25T11:56:07.491Z,20.41
2019-05-25T11:57:12.427Z,20.44
2019-05-25T11:58:18.076Z,20.46
2019-05-25T11:59:23.127Z,20.46
2019-05-25T12:00:28.714Z,20.47
2019-05-25T12:01:33.752Z,20.48
2019-05-25T12:02:39.508Z,20.49
2019-05-25T12:03:44.497Z,20.51
2019-05-25T12:04:50.077Z,20.50
2019-05-25T12:05:55.063Z,20.50
2019-05-25T12:07:00.700Z,20.47
2019-05-25T12:08:05.852Z,20.47
2019-05-25T12:09:11.358Z,20.46
2019-05-25T12:10:16.900Z,20.43
2019-05-25T12:11:22.487Z,20.42
2019-05-25T12:12:27.453Z,20.39
2019-05-25T12:13:33.043Z,20.34
2019-05-25T12:14:38.197Z,20.31
2019-05-25T12:15:43.897Z,20.30
2019-05-25T12:16:48.894Z,20.29
2019-05-25T12:17:54.445Z,20.28
2019-05-25T12:18:59.354Z,20.28
2019-05-25T12:20:05.869Z,20.30
2019-05-25T12:21:10.866Z,20.34
2019-05-25T12:22:16.394Z,20.36
2019-05-25T12:23:21.563Z,20.37
2019-05-25T12:24:27.366Z,20.39
2019-05-25T12:25:32.445Z,20.40
2019-05-25T12:26:38.049Z,20.40
2019-05-25T12:27:43.108Z,20.40
2019-05-25T12:28:48.632Z,20.41
2019-05-25T12:29:53.819Z,20.42
2019-05-25T12:30:59.417Z,20.43
2019-05-25T12:32:04.715Z,20.46
2019-05-25T12:33:10.498Z,20.49
2019-05-25T12:34:15.523Z,20.55
2019-05-25T12:35:21.282Z,20.56
2019-05-25T12:36:26.402Z,20.58
2019-05-25T12:37:32.235Z,20.58
2019-05-25T12:38:37.264Z,20.59
2019-05-25T12:39:42.756Z,20.62
2019-05-25T12:40:53.527Z,20.66
2019-05-25T12:41:54.967Z,20.71
2019-05-25T12:42:59.921Z,20.76
2019-05-25T12:44:06.948Z,20.86
2019-05-25T12:45:12.349Z,20.92
2019-05-25T12:46:17.870Z,20.96
2019-05-25T12:47:22.870Z,20.95
2019-05-25T12:48:28.411Z,20.96
2019-05-25T12:49:49.337Z,20.97
2019-05-25T12:50:40.882Z,20.95
2019-05-25T12:51:45.838Z,20.96
2019-05-25T12:52:51.395Z,20.95
2019-05-25T12:53:56.375Z,20.93
2019-05-25T12:55:02.117Z,20.96
2019-05-25T12:56:07.519Z,20.97
2019-05-25T12:57:13.142Z,20.98
2019-05-25T12:58:18.522Z,20.99
2019-05-25T12:59:24.200Z,20.97
2019-05-25T13:00:29.296Z,20.97
2019-05-25T13:01:35.112Z,20.97
2019-05-25T13:02:40.480Z,20.97
2019-05-25T13:03:46.241Z,20.96
2019-05-25T13:04:51.729Z,20.97
2019-05-25T13:05:57.577Z,20.96
2019-05-25T13:07:02.872Z,20.98
2019-05-25T13:08:08.457Z,21.02
2019-05-25T13:09:13.459Z,21.02
2019-05-25T13:10:19.414Z,21.04
2019-05-25T13:11:24.432Z,21.07
2019-05-25T13:12:30.133Z,21.08
2019-05-25T13:13:35.124Z,21.08
2019-05-25T13:14:40.679Z,21.08
2019-05-25T13:15:45.587Z,21.08
2019-05-25T13:16:51.083Z,21.08
2019-05-25T13:17:56.344Z,21.05
2019-05-25T13:19:01.939Z,21.03
2019-05-25T13:20:07.352Z,20.99
2019-05-25T13:21:12.890Z,20.97
2019-05-25T13:22:18.136Z,20.95
2019-05-25T13:23:24.093Z,20.90
2019-05-25T13:24:29.307Z,20.87
2019-05-25T13:25:34.907Z,20.84
2019-05-25T13:26:39.858Z,20.85
2019-05-25T13:27:45.371Z,20.88
2019-05-25T13:28:50.631Z,20.89
2019-05-25T13:29:56.129Z,20.92
2019-05-25T13:31:11.349Z,20.92
2019-05-25T13:32:08.719Z,20.93
2019-05-25T13:33:13.939Z,20.95
2019-05-25T13:34:19.550Z,20.96
2019-05-25T13:35:24.461Z,20.96
2019-05-25T13:36:29.964Z,20.97
2019-05-25T13:37:35.126Z,20.97
2019-05-25T13:38:40.805Z,20.95
2019-05-25T13:39:46.038Z,20.92
2019-05-25T13:40:51.590Z,20.88
2019-05-25T13:41:56.741Z,20.86
2019-05-25T13:43:02.760Z,20.85
2019-05-25T13:44:07.887Z,20.83
2019-05-25T13:45:13.775Z,20.81
2019-05-25T13:46:18.848Z,20.78
2019-05-25T13:47:24.671Z,20.75
2019-05-25T13:48:29.627Z,20.73
2019-05-25T13:49:35.196Z,20.71
2019-05-25T13:50:40.124Z,20.69
2019-05-25T13:51:45.635Z,20.69
2019-05-25T13:52:50.900Z,20.68
2019-05-25T13:53:56.366Z,20.69
2019-05-25T13:55:01.372Z,20.71
2019-05-25T13:56:07.046Z,20.74
2019-05-25T13:57:11.954Z,20.76
2019-05-25T13:58:17.794Z,20.80
2019-05-25T13:59:22.902Z,20.84
2019-05-25T14:00:28.481Z,20.85
2019-05-25T14:01:33.578Z,20.86
2019-05-25T14:02:39.244Z,20.87
2019-05-25T14:03:44.199Z,20.84
2019-05-25T14:04:49.725Z,20.85
2019-05-25T14:05:54.952Z,20.85
2019-05-25T14:07:00.545Z,20.87
2019-05-25T14:08:05.733Z,20.89
2019-05-25T14:09:11.512Z,20.92
2019-05-25T14:10:16.578Z,20.97